sensor_id;sensor_type;location;lat;lon;timestamp;pressure;altitude;pressure_sealevel;temperature;humidity
3796;BME280;1913;50.660;7.834;2023-06-22T00:00:52;152722.97;;;18.96;100.00
3796;BME280;1913;50.660;7.834;2023-06-22T00:03:19;152757.09;;;19.09;100.00
3796;BME280;1913;50.660;7.834;2023-06-22T00:05:46;152791.22;;;19.23;100.00
3796;BME280;1913;50.660;7.834;2023-06-22T00:08:12;152829.09;;;19.38;100.00
3796;BME280;1913;50.660;7.834;2023-06-22T00:10:37;152845.53;;;19.45;100.00
3796;BME280;1913;50.660;7.834;2023-06-22T00:13:03;152870.81;;;19.55;100.00
3796;BME280;1913;50.660;7.834;2023-06-22T00:15:29;152896.16;;;19.66;100.00
3796;BME280;1913;50.660;7.834;2023-06-22T00:17:54;152905.00;;;19.69;100.00
3796;BME280;1913;50.660;7.834;2023-06-22T00:20:22;152927.75;;;19.78;100.00
3796;BME280;1913;50.660;7.834;2023-06-22T00:22:47;152941.66;;;19.84;100.00
3796;BME280;1913;50.660;7.834;2023-06-22T00:25:13;152935.31;;;19.81;100.00
3796;BME280;1913;50.660;7.834;2023-06-22T00:27:39;152946.72;;;19.86;100.00
3796;BME280;1913;50.660;7.834;2023-06-22T00:30:04;152961.91;;;19.92;100.00
3796;BME280;1913;50.660;7.834;2023-06-22T00:32:30;152993.47;;;20.05;100.00
3796;BME280;1913;50.660;7.834;2023-06-22T00:34:55;152993.47;;;20.05;100.00
3796;BME280;1913;50.660;7.834;2023-06-22T00:37:21;153016.25;;;20.14;100.00
3796;BME280;1913;50.660;7.834;2023-06-22T00:39:51;153012.44;;;20.13;100.00
3796;BME280;1913;50.660;7.834;2023-06-22T00:42:16;153035.22;;;20.22;100.00
3796;BME280;1913;50.660;7.834;2023-06-22T00:44:42;153052.91;;;20.29;100.00
3796;BME280;1913;50.660;7.834;2023-06-22T00:47:07;153092.09;;;20.45;100.00
3796;BME280;1913;50.660;7.834;2023-06-22T00:49:32;153093.34;;;20.45;100.00
3796;BME280;1913;50.660;7.834;2023-06-22T00:51:58;153107.31;;;20.51;100.00
3796;BME280;1913;50.660;7.834;2023-06-22T00:54:24;153122.50;;;20.57;100.00
3796;BME280;1913;50.660;7.834;2023-06-22T00:56:53;153123.75;;;20.58;100.00
3796;BME280;1913;50.660;7.834;2023-06-22T00:59:20;153114.91;;;20.54;100.00
3796;BME280;1913;50.660;7.834;2023-06-22T01:01:46;153132.63;;;20.61;100.00
3796;BME280;1913;50.660;7.834;2023-06-22T01:04:11;153137.66;;;20.63;100.00
3796;BME280;1913;50.660;7.834;2023-06-22T01:06:44;153160.44;;;20.72;100.00
3796;BME280;1913;50.660;7.834;2023-06-22T01:09:22;153160.44;;;20.72;100.00
3796;BME280;1913;50.660;7.834;2023-06-22T01:12:00;153199.59;;;20.88;100.00
3796;BME280;1913;50.660;7.834;2023-06-22T01:14:42;153193.31;;;20.86;100.00
3796;BME280;1913;50.660;7.834;2023-06-22T01:17:08;153199.59;;;20.88;100.00
3796;BME280;1913;50.660;7.834;2023-06-22T01:19:45;153180.66;;;20.80;100.00
3796;BME280;1913;50.660;7.834;2023-06-22T01:22:22;153161.69;;;20.73;100.00
3796;BME280;1913;50.660;7.834;2023-06-22T01:24:51;153173.06;;;20.77;100.00
3796;BME280;1913;50.660;7.834;2023-06-22T01:27:33;153161.69;;;20.73;100.00
3796;BME280;1913;50.660;7.834;2023-06-22T01:30:03;153128.78;;;20.60;100.00
3796;BME280;1913;50.660;7.834;2023-06-22T01:32:32;153135.13;;;20.62;100.00
3796;BME280;1913;50.660;7.834;2023-06-22T01:35:00;153100.94;;;20.48;100.00
3796;BME280;1913;50.660;7.834;2023-06-22T01:37:28;153099.66;;;20.48;100.00
3796;BME280;1913;50.660;7.834;2023-06-22T01:39:55;153088.31;;;20.43;100.00
3796;BME280;1913;50.660;7.834;2023-06-22T01:42:23;153075.63;;;20.38;100.00
3796;BME280;1913;50.660;7.834;2023-06-22T01:44:49;153068.09;;;20.35;100.00
3796;BME280;1913;50.660;7.834;2023-06-22T01:47:15;153066.78;;;20.34;100.00
3796;BME280;1913;50.660;7.834;2023-06-22T01:49:41;153078.19;;;20.39;100.00
3796;BME280;1913;50.660;7.834;2023-06-22T01:52:07;153057.94;;;20.31;100.00
3796;BME280;1913;50.660;7.834;2023-06-22T01:54:32;153064.28;;;20.33;100.00
3796;BME280;1913;50.660;7.834;2023-06-22T01:56:58;153066.78;;;20.34;100.00
3796;BME280;1913;50.660;7.834;2023-06-22T01:59:32;153083.22;;;20.41;100.00
3796;BME280;1913;50.660;7.834;2023-06-22T02:02:10;153084.50;;;20.42;100.00
3796;BME280;1913;50.660;7.834;2023-06-22T02:04:47;153083.22;;;20.41;100.00
3796;BME280;1913;50.660;7.834;2023-06-22T02:07:15;153085.78;;;20.42;100.00
3796;BME280;1913;50.660;7.834;2023-06-22T02:09:45;153097.16;;;20.47;100.00
3796;BME280;1913;50.660;7.834;2023-06-22T02:12:13;153119.94;;;20.56;100.00
3796;BME280;1913;50.660;7.834;2023-06-22T02:14:42;153150.31;;;20.68;100.00
3796;BME280;1913;50.660;7.834;2023-06-22T02:17:09;153136.38;;;20.63;100.00
3796;BME280;1913;50.660;7.834;2023-06-22T02:19:40;153141.47;;;20.65;100.00
3796;BME280;1913;50.660;7.834;2023-06-22T02:22:06;153122.50;;;20.57;100.00
3796;BME280;1913;50.660;7.834;2023-06-22T02:24:31;153107.31;;;20.51;100.00
3796;BME280;1913;50.660;7.834;2023-06-22T02:26:59;153079.47;;;20.40;100.00
3796;BME280;1913;50.660;7.834;2023-06-22T02:29:25;153060.50;;;20.32;100.00
3796;BME280;1913;50.660;7.834;2023-06-22T02:31:52;153025.09;;;20.18;100.00
3796;BME280;1913;50.660;7.834;2023-06-22T02:34:18;152998.56;;;20.07;100.00
3796;BME280;1913;50.660;7.834;2023-06-22T02:36:48;152935.31;;;19.81;100.00
3796;BME280;1913;50.660;7.834;2023-06-22T02:41:44;152906.25;;;19.70;100.00
3796;BME280;1913;50.660;7.834;2023-06-22T02:44:09;152868.31;;;19.54;100.00
3796;BME280;1913;50.660;7.834;2023-06-22T02:46:35;152874.63;;;19.57;100.00
3796;BME280;1913;50.660;7.834;2023-06-22T02:49:01;152864.47;;;19.53;100.00
3796;BME280;1913;50.660;7.834;2023-06-22T02:51:26;152851.88;;;19.48;100.00
3796;BME280;1913;50.660;7.834;2023-06-22T02:53:52;152834.19;;;19.41;100.00
3796;BME280;1913;50.660;7.834;2023-06-22T02:56:22;152807.66;;;19.30;100.00
3796;BME280;1913;50.660;7.834;2023-06-22T02:58:51;152792.47;;;19.24;100.00
3796;BME280;1913;50.660;7.834;2023-06-22T03:01:16;152777.34;;;19.18;100.00
3796;BME280;1913;50.660;7.834;2023-06-22T03:03:42;152777.34;;;19.18;100.00
3796;BME280;1913;50.660;7.834;2023-06-22T03:06:07;152735.63;;;19.01;100.00
3796;BME280;1913;50.660;7.834;2023-06-22T03:08:33;152740.66;;;19.03;100.00
3796;BME280;1913;50.660;7.834;2023-06-22T03:10:58;152736.88;;;19.01;100.00
3796;BME280;1913;50.660;7.834;2023-06-22T03:13:24;152717.94;;;18.94;100.00
3796;BME280;1913;50.660;7.834;2023-06-22T03:15:49;152686.34;;;18.81;100.00
3796;BME280;1913;50.660;7.834;2023-06-22T03:18:14;152666.16;;;18.73;100.00
3796;BME280;1913;50.660;7.834;2023-06-22T03:20:41;152629.47;;;18.58;100.00
3796;BME280;1913;50.660;7.834;2023-06-22T03:23:06;152619.38;;;18.54;100.00
3796;BME280;1913;50.660;7.834;2023-06-22T03:25:32;152650.94;;;18.66;100.00
3796;BME280;1913;50.660;7.834;2023-06-22T03:27:58;152678.75;;;18.78;100.00
3796;BME280;1913;50.660;7.834;2023-06-22T03:30:24;152662.34;;;18.71;100.00
3796;BME280;1913;50.660;7.834;2023-06-22T03:32:49;152680.00;;;18.78;100.00
3796;BME280;1913;50.660;7.834;2023-06-22T03:35:15;152675.00;;;18.76;100.00
3796;BME280;1913;50.660;7.834;2023-06-22T03:37:40;152680.00;;;18.78;100.00
3796;BME280;1913;50.660;7.834;2023-06-22T03:40:06;152669.91;;;18.74;100.00
3796;BME280;1913;50.660;7.834;2023-06-22T03:42:34;152638.31;;;18.61;100.00
3796;BME280;1913;50.660;7.834;2023-06-22T03:45:00;152654.75;;;18.68;100.00
3796;BME280;1913;50.660;7.834;2023-06-22T03:47:26;152667.41;;;18.73;100.00
3796;BME280;1913;50.660;7.834;2023-06-22T03:49:52;152666.16;;;18.73;100.00
3796;BME280;1913;50.660;7.834;2023-06-22T03:52:20;152645.91;;;18.64;100.00
3796;BME280;1913;50.660;7.834;2023-06-22T03:54:47;152648.41;;;18.65;100.00
3796;BME280;1913;50.660;7.834;2023-06-22T03:57:12;152661.03;;;18.71;100.00
3796;BME280;1913;50.660;7.834;2023-06-22T03:59:37;152657.25;;;18.69;100.00
3796;BME280;1913;50.660;7.834;2023-06-22T04:02:03;152663.63;;;18.72;100.00
3796;BME280;1913;50.660;7.834;2023-06-22T04:04:28;152661.03;;;18.71;100.00
3796;BME280;1913;50.660;7.834;2023-06-22T04:06:54;152667.41;;;18.73;100.00
3796;BME280;1913;50.660;7.834;2023-06-22T04:09:19;152662.34;;;18.71;100.00
3796;BME280;1913;50.660;7.834;2023-06-22T04:11:46;152681.31;;;18.79;100.00
3796;BME280;1913;50.660;7.834;2023-06-22T04:14:12;152688.84;;;18.82;100.00
3796;BME280;1913;50.660;7.834;2023-06-22T04:16:37;152696.44;;;18.85;100.00
3796;BME280;1913;50.660;7.834;2023-06-22T04:19:03;152714.13;;;18.92;100.00
3796;BME280;1913;50.660;7.834;2023-06-22T04:21:28;152721.72;;;18.95;100.00
3796;BME280;1913;50.660;7.834;2023-06-22T04:23:54;152735.63;;;19.01;100.00
3796;BME280;1913;50.660;7.834;2023-06-22T04:26:20;152740.66;;;19.03;100.00
3796;BME280;1913;50.660;7.834;2023-06-22T04:28:47;152740.66;;;19.03;100.00
3796;BME280;1913;50.660;7.834;2023-06-22T04:31:17;152765.94;;;19.13;100.00
3796;BME280;1913;50.660;7.834;2023-06-22T04:33:45;152772.25;;;19.16;100.00
3796;BME280;1913;50.660;7.834;2023-06-22T04:36:10;152791.22;;;19.23;100.00
3796;BME280;1913;50.660;7.834;2023-06-22T04:38:39;152805.13;;;19.29;100.00
3796;BME280;1913;50.660;7.834;2023-06-22T04:41:04;152817.75;;;19.34;100.00
3796;BME280;1913;50.660;7.834;2023-06-22T04:43:29;152836.69;;;19.42;100.00
3796;BME280;1913;50.660;7.834;2023-06-22T04:45:58;152844.28;;;19.45;100.00
3796;BME280;1913;50.660;7.834;2023-06-22T04:48:31;152846.78;;;19.46;100.00
3796;BME280;1913;50.660;7.834;2023-06-22T04:51:01;152864.47;;;19.53;100.00
3796;BME280;1913;50.660;7.834;2023-06-22T04:53:29;152863.22;;;19.52;100.00
3796;BME280;1913;50.660;7.834;2023-06-22T04:55:55;152877.16;;;19.58;100.00
3796;BME280;1913;50.660;7.834;2023-06-22T04:58:20;152893.63;;;19.65;100.00
3796;BME280;1913;50.660;7.834;2023-06-22T05:00:47;152902.47;;;19.68;100.00
3796;BME280;1913;50.660;7.834;2023-06-22T05:03:12;152930.28;;;19.79;100.00
3796;BME280;1913;50.660;7.834;2023-06-22T05:05:38;152951.75;;;19.88;100.00
3796;BME280;1913;50.660;7.834;2023-06-22T05:08:03;152956.81;;;19.90;100.00
3796;BME280;1913;50.660;7.834;2023-06-22T05:10:32;152980.84;;;20.00;100.00
3796;BME280;1913;50.660;7.834;2023-06-22T05:12:58;152999.81;;;20.07;100.00
3796;BME280;1913;50.660;7.834;2023-06-22T05:15:23;153046.56;;;20.26;100.00
3796;BME280;1913;50.660;7.834;2023-06-22T05:17:53;153049.09;;;20.27;100.00
3796;BME280;1913;50.660;7.834;2023-06-22T05:20:19;153107.31;;;20.51;100.00
3796;BME280;1913;50.660;7.834;2023-06-22T05:22:45;153150.31;;;20.68;100.00
3796;BME280;1913;50.660;7.834;2023-06-22T05:25:11;153198.34;;;20.88;100.00
3796;BME280;1913;50.660;7.834;2023-06-22T05:27:37;153264.16;;;21.14;100.00
3796;BME280;1913;50.660;7.834;2023-06-22T05:30:07;153329.97;;;21.41;100.00
3796;BME280;1913;50.660;7.834;2023-06-22T05:32:33;153378.06;;;21.60;100.00
3796;BME280;1913;50.660;7.834;2023-06-22T05:34:59;153434.97;;;21.83;100.00
3796;BME280;1913;50.660;7.834;2023-06-22T05:37:25;153484.38;;;22.03;100.00
3796;BME280;1913;50.660;7.834;2023-06-22T05:39:50;153561.63;;;22.34;100.00
3796;BME280;1913;50.660;7.834;2023-06-22T05:42:16;153575.53;;;22.40;100.00
3796;BME280;1913;50.660;7.834;2023-06-22T05:44:41;153655.28;;;22.72;100.00
3796;BME280;1913;50.660;7.834;2023-06-22T05:47:06;153741.44;;;23.07;100.00
3796;BME280;1913;50.660;7.834;2023-06-22T05:49:32;153822.47;;;23.39;100.00
3796;BME280;1913;50.660;7.834;2023-06-22T05:51:58;153806.00;;;23.33;100.00
3796;BME280;1913;50.660;7.834;2023-06-22T05:54:24;153982.16;;;24.04;100.00
3796;BME280;1913;50.660;7.834;2023-06-22T05:56:50;154040.44;;;24.27;100.00
3796;BME280;1913;50.660;7.834;2023-06-22T05:59:15;154163.44;;;24.77;100.00
3796;BME280;1913;50.660;7.834;2023-06-22T06:01:41;154249.69;;;25.12;100.00
3796;BME280;1913;50.660;7.834;2023-06-22T06:04:06;154320.69;;;25.40;100.00
3796;BME280;1913;50.660;7.834;2023-06-22T06:06:34;154225.53;;;25.02;100.00
3796;BME280;1913;50.660;7.834;2023-06-22T06:09:05;154288.97;;;25.27;100.00
3796;BME280;1913;50.660;7.834;2023-06-22T06:11:31;154187.47;;;24.87;100.00
3796;BME280;1913;50.660;7.834;2023-06-22T06:13:57;154195.09;;;24.90;100.00
3796;BME280;1913;50.660;7.834;2023-06-22T06:16:23;154235.69;;;25.06;100.00
3796;BME280;1913;50.660;7.834;2023-06-22T06:18:48;154278.84;;;25.23;100.00
3796;BME280;1913;50.660;7.834;2023-06-22T06:21:16;154382.81;;;25.65;100.00
3796;BME280;1913;50.660;7.834;2023-06-22T06:23:42;154521.06;;;26.21;100.00
3796;BME280;1913;50.660;7.834;2023-06-22T06:26:08;154566.72;;;26.39;100.00
3796;BME280;1913;50.660;7.834;2023-06-22T06:28:34;154494.44;;;26.10;100.00
3796;BME280;1913;50.660;7.834;2023-06-22T06:31:00;154464.03;;;25.98;100.00
3796;BME280;1913;50.660;7.834;2023-06-22T06:33:25;154437.38;;;25.87;100.00
3796;BME280;1913;50.660;7.834;2023-06-22T06:35:51;154428.50;;;25.84;100.00
3796;BME280;1913;50.660;7.834;2023-06-22T06:38:16;154395.47;;;25.70;100.00
3796;BME280;1913;50.660;7.834;2023-06-22T06:40:42;154409.44;;;25.76;100.00
3796;BME280;1913;50.660;7.834;2023-06-22T06:43:07;154300.38;;;25.32;100.00
3796;BME280;1913;50.660;7.834;2023-06-22T06:45:33;154318.13;;;25.39;100.00
3796;BME280;1913;50.660;7.834;2023-06-22T06:47:59;154301.63;;;25.32;100.00
3796;BME280;1913;50.660;7.834;2023-06-22T06:50:25;154266.13;;;25.18;100.00
3796;BME280;1913;50.660;7.834;2023-06-22T06:52:50;154209.06;;;24.95;100.00
3796;BME280;1913;50.660;7.834;2023-06-22T06:55:16;154277.56;;;25.23;100.00
3796;BME280;1913;50.660;7.834;2023-06-22T06:57:42;154365.06;;;25.58;100.00
3796;BME280;1913;50.660;7.834;2023-06-22T07:00:11;154413.22;;;25.77;100.00
3796;BME280;1913;50.660;7.834;2023-06-22T07:02:39;154476.69;;;26.03;100.00
3796;BME280;1913;50.660;7.834;2023-06-22T07:05:05;154502.06;;;26.13;100.00
3796;BME280;1913;50.660;7.834;2023-06-22T07:07:31;154493.19;;;26.10;100.00
3796;BME280;1913;50.660;7.834;2023-06-22T07:09:57;154548.97;;;26.32;100.00
3796;BME280;1913;50.660;7.834;2023-06-22T07:12:22;154608.66;;;26.56;100.00
3796;BME280;1913;50.660;7.834;2023-06-22T07:14:48;154578.19;;;26.44;100.00
3796;BME280;1913;50.660;7.834;2023-06-22T07:17:13;154644.19;;;26.70;100.00
3796;BME280;1913;50.660;7.834;2023-06-22T07:19:39;154650.53;;;26.73;100.00
3796;BME280;1913;50.660;7.834;2023-06-22T07:22:05;154680.97;;;26.85;100.00
3796;BME280;1913;50.660;7.834;2023-06-22T07:24:30;154665.78;;;26.79;100.00
3796;BME280;1913;50.660;7.834;2023-06-22T07:26:57;154678.44;;;26.84;100.00
3796;BME280;1913;50.660;7.834;2023-06-22T07:29:24;154716.50;;;26.99;100.00
3796;BME280;1913;50.660;7.834;2023-06-22T07:31:50;154717.75;;;27.00;100.00
3796;BME280;1913;50.660;7.834;2023-06-22T07:34:21;154700.00;;;26.93;100.00
3796;BME280;1913;50.660;7.834;2023-06-22T07:36:47;154719.06;;;27.01;100.00
3796;BME280;1913;50.660;7.834;2023-06-22T07:39:12;154678.44;;;26.84;100.00
3796;BME280;1913;50.660;7.834;2023-06-22T07:41:39;154628.94;;;26.64;100.00
3796;BME280;1913;50.660;7.834;2023-06-22T07:44:04;154628.94;;;26.64;100.00
3796;BME280;1913;50.660;7.834;2023-06-22T07:46:31;154719.06;;;27.01;100.00
3796;BME280;1913;50.660;7.834;2023-06-22T07:48:57;154684.81;;;26.87;100.00
3796;BME280;1913;50.660;7.834;2023-06-22T07:51:22;154711.47;;;26.97;100.00
3796;BME280;1913;50.660;7.834;2023-06-22T07:53:48;154758.44;;;27.16;100.00
3796;BME280;1913;50.660;7.834;2023-06-22T07:56:14;154755.91;;;27.15;100.00
3796;BME280;1913;50.660;7.834;2023-06-22T07:58:45;154766.06;;;27.19;100.00
3796;BME280;1913;50.660;7.834;2023-06-22T08:01:10;154703.84;;;26.94;100.00
3796;BME280;1913;50.660;7.834;2023-06-22T08:03:36;154945.06;;;27.91;100.00
3796;BME280;1913;50.660;7.834;2023-06-22T08:06:02;154960.31;;;27.98;100.00
3796;BME280;1913;50.660;7.834;2023-06-22T08:08:28;154936.19;;;27.88;100.00
3796;BME280;1913;50.660;7.834;2023-06-22T08:10:54;154936.19;;;27.88;100.00
3796;BME280;1913;50.660;7.834;2023-06-22T08:13:19;154984.47;;;28.07;100.00
3796;BME280;1913;50.660;7.834;2023-06-22T08:15:44;154937.44;;;27.88;100.00
3796;BME280;1913;50.660;7.834;2023-06-22T08:18:10;154910.78;;;27.78;100.00
3796;BME280;1913;50.660;7.834;2023-06-22T08:20:35;154905.75;;;27.76;100.00
3796;BME280;1913;50.660;7.834;2023-06-22T08:23:01;154945.06;;;27.91;100.00
3796;BME280;1913;50.660;7.834;2023-06-22T08:25:32;155026.31;;;28.24;99.49
3796;BME280;1913;50.660;7.834;2023-06-22T08:27:59;155086.06;;;28.48;98.60
3796;BME280;1913;50.660;7.834;2023-06-22T08:30:25;155064.50;;;28.39;97.77
3796;BME280;1913;50.660;7.834;2023-06-22T08:32:51;155168.59;;;28.81;96.70
3796;BME280;1913;50.660;7.834;2023-06-22T08:35:16;155281.72;;;29.27;90.01
3796;BME280;1913;50.660;7.834;2023-06-22T08:37:42;155234.72;;;29.08;91.75
3796;BME280;1913;50.660;7.834;2023-06-22T08:40:08;155313.50;;;29.40;89.87
3796;BME280;1913;50.660;7.834;2023-06-22T08:42:39;155354.13;;;29.56;91.14
3796;BME280;1913;50.660;7.834;2023-06-22T08:45:06;155351.59;;;29.55;85.77
3796;BME280;1913;50.660;7.834;2023-06-22T08:47:31;155299.50;;;29.34;86.52
3796;BME280;1913;50.660;7.834;2023-06-22T08:49:57;155335.06;;;29.48;87.00
3796;BME280;1913;50.660;7.834;2023-06-22T08:52:22;155435.53;;;29.89;84.02
3796;BME280;1913;50.660;7.834;2023-06-22T08:54:48;155332.56;;;29.47;85.89
3796;BME280;1913;50.660;7.834;2023-06-22T08:57:14;155330.03;;;29.46;86.12
3796;BME280;1913;50.660;7.834;2023-06-22T08:59:39;155157.19;;;28.77;88.15
3796;BME280;1913;50.660;7.834;2023-06-22T09:02:05;155169.91;;;28.82;88.82
3796;BME280;1913;50.660;7.834;2023-06-22T09:04:31;155101.31;;;28.54;91.28
3796;BME280;1913;50.660;7.834;2023-06-22T09:07:00;155110.22;;;28.58;93.42
3796;BME280;1913;50.660;7.834;2023-06-22T09:09:26;155208.00;;;28.97;88.00
3796;BME280;1913;50.660;7.834;2023-06-22T09:11:51;155356.69;;;29.57;91.08
3796;BME280;1913;50.660;7.834;2023-06-22T09:14:17;155222.00;;;29.03;91.45
3796;BME280;1913;50.660;7.834;2023-06-22T09:16:42;155252.50;;;29.15;93.58
3796;BME280;1913;50.660;7.834;2023-06-22T09:19:07;155116.56;;;28.60;93.74
3796;BME280;1913;50.660;7.834;2023-06-22T09:21:33;155072.13;;;28.43;95.23
3796;BME280;1913;50.660;7.834;2023-06-22T09:23:58;155144.50;;;28.72;95.41
3796;BME280;1913;50.660;7.834;2023-06-22T09:26:23;155163.56;;;28.79;91.06
3796;BME280;1913;50.660;7.834;2023-06-22T09:28:49;155244.88;;;29.12;92.77
3796;BME280;1913;50.660;7.834;2023-06-22T09:31:14;155253.78;;;29.16;89.81
3796;BME280;1913;50.660;7.834;2023-06-22T09:33:41;155263.94;;;29.20;87.55
3796;BME280;1913;50.660;7.834;2023-06-22T09:36:07;155169.91;;;28.82;91.23
3796;BME280;1913;50.660;7.834;2023-06-22T09:38:36;155046.69;;;28.32;94.68
3796;BME280;1913;50.660;7.834;2023-06-22T09:41:02;155044.09;;;28.31;94.49
3796;BME280;1913;50.660;7.834;2023-06-22T09:43:27;155153.41;;;28.75;92.39
3796;BME280;1913;50.660;7.834;2023-06-22T09:45:53;155182.59;;;28.87;93.14
3796;BME280;1913;50.660;7.834;2023-06-22T09:48:18;155191.50;;;28.91;87.79
3796;BME280;1913;50.660;7.834;2023-06-22T09:50:44;155263.94;;;29.20;88.34
3796;BME280;1913;50.660;7.834;2023-06-22T09:53:09;155252.50;;;29.15;90.76
3796;BME280;1913;50.660;7.834;2023-06-22T09:55:34;155324.91;;;29.44;87.74
3796;BME280;1913;50.660;7.834;2023-06-22T09:58:00;155317.28;;;29.41;86.21
3796;BME280;1913;50.660;7.834;2023-06-22T10:00:25;155270.31;;;29.22;83.38
3796;BME280;1913;50.660;7.834;2023-06-22T10:02:51;155136.88;;;28.69;85.95
3796;BME280;1913;50.660;7.834;2023-06-22T10:05:17;155002.22;;;28.14;91.71
3796;BME280;1913;50.660;7.834;2023-06-22T10:07:42;155045.41;;;28.32;94.14
3796;BME280;1913;50.660;7.834;2023-06-22T10:10:10;155093.69;;;28.51;90.98
3796;BME280;1913;50.660;7.834;2023-06-22T10:12:35;155091.16;;;28.50;89.43
3796;BME280;1913;50.660;7.834;2023-06-22T10:15:00;155108.94;;;28.57;89.38
3796;BME280;1913;50.660;7.834;2023-06-22T10:17:26;155143.25;;;28.71;90.83
3796;BME280;1913;50.660;7.834;2023-06-22T10:19:51;155108.94;;;28.57;89.67
3796;BME280;1913;50.660;7.834;2023-06-22T10:22:16;155025.06;;;28.24;90.62
3796;BME280;1913;50.660;7.834;2023-06-22T10:24:42;154952.69;;;27.95;93.10
3796;BME280;1913;50.660;7.834;2023-06-22T10:27:13;154773.69;;;27.23;97.54
3796;BME280;1913;50.660;7.834;2023-06-22T10:29:39;154664.47;;;26.79;100.00
3796;BME280;1913;50.660;7.834;2023-06-22T10:32:04;154593.44;;;26.50;100.00
3796;BME280;1913;50.660;7.834;2023-06-22T10:34:30;154559.16;;;26.36;100.00
3796;BME280;1913;50.660;7.834;2023-06-22T10:36:55;154559.16;;;26.36;100.00
3796;BME280;1913;50.660;7.834;2023-06-22T10:39:21;154548.97;;;26.32;100.00
3796;BME280;1913;50.660;7.834;2023-06-22T10:41:46;154548.97;;;26.32;100.00
3796;BME280;1913;50.660;7.834;2023-06-22T10:44:12;154546.44;;;26.31;100.00
3796;BME280;1913;50.660;7.834;2023-06-22T10:46:37;154531.22;;;26.25;100.00
3796;BME280;1913;50.660;7.834;2023-06-22T10:49:03;154469.06;;;26.00;100.00
3796;BME280;1913;50.660;7.834;2023-06-22T10:51:28;154410.72;;;25.76;100.00
3796;BME280;1913;50.660;7.834;2023-06-22T10:53:54;154419.63;;;25.80;100.00
3796;BME280;1913;50.660;7.834;2023-06-22T10:56:19;154387.88;;;25.67;100.00
3796;BME280;1913;50.660;7.834;2023-06-22T10:58:45;154203.97;;;24.93;100.00
3796;BME280;1913;50.660;7.834;2023-06-22T11:01:10;154094.97;;;24.49;100.00
3796;BME280;1913;50.660;7.834;2023-06-22T11:03:36;153997.34;;;24.10;100.00
3796;BME280;1913;50.660;7.834;2023-06-22T11:06:01;153926.41;;;23.81;100.00
3796;BME280;1913;50.660;7.834;2023-06-22T11:08:27;153835.19;;;23.45;100.00
3796;BME280;1913;50.660;7.834;2023-06-22T11:10:52;153779.41;;;23.22;100.00
3796;BME280;1913;50.660;7.834;2023-06-22T11:13:18;153745.22;;;23.08;100.00
3796;BME280;1913;50.660;7.834;2023-06-22T11:15:43;153750.31;;;23.10;100.00
3796;BME280;1913;50.660;7.834;2023-06-22T11:18:09;153837.69;;;23.46;100.00
3796;BME280;1913;50.660;7.834;2023-06-22T11:20:34;153960.63;;;23.95;100.00
3796;BME280;1913;50.660;7.834;2023-06-22T11:23:04;154036.63;;;24.26;100.00
3796;BME280;1913;50.660;7.834;2023-06-22T11:25:30;154141.84;;;24.68;100.00
3796;BME280;1913;50.660;7.834;2023-06-22T11:27:56;154282.63;;;25.25;100.00
3796;BME280;1913;50.660;7.834;2023-06-22T11:30:21;154390.38;;;25.68;100.00
3796;BME280;1913;50.660;7.834;2023-06-22T11:32:47;154494.44;;;26.10;100.00
3796;BME280;1913;50.660;7.834;2023-06-22T11:35:13;154601.03;;;26.53;100.00
3796;BME280;1913;50.660;7.834;2023-06-22T11:37:38;154792.72;;;27.30;100.00
3796;BME280;1913;50.660;7.834;2023-06-22T11:40:04;154931.13;;;27.86;100.00
3796;BME280;1913;50.660;7.834;2023-06-22T11:42:30;155047.94;;;28.33;100.00
3796;BME280;1913;50.660;7.834;2023-06-22T11:44:56;155130.53;;;28.66;100.00
3796;BME280;1913;50.660;7.834;2023-06-22T11:47:21;155173.72;;;28.83;100.00
3796;BME280;1913;50.660;7.834;2023-06-22T11:49:47;155284.25;;;29.28;100.00
3796;BME280;1913;50.660;7.834;2023-06-22T11:52:12;155314.75;;;29.40;100.00
3796;BME280;1913;50.660;7.834;2023-06-22T11:54:37;155352.88;;;29.55;100.00
3796;BME280;1913;50.660;7.834;2023-06-22T11:57:04;155407.53;;;29.77;100.00
3796;BME280;1913;50.660;7.834;2023-06-22T11:59:29;155364.38;;;29.60;100.00
3796;BME280;1913;50.660;7.834;2023-06-22T12:01:55;155276.66;;;29.25;100.00
3796;BME280;1913;50.660;7.834;2023-06-22T12:04:20;155357.97;;;29.57;100.00
3796;BME280;1913;50.660;7.834;2023-06-22T12:06:46;155305.88;;;29.37;100.00
3796;BME280;1913;50.660;7.834;2023-06-22T12:09:13;155314.75;;;29.40;100.00
3796;BME280;1913;50.660;7.834;2023-06-22T12:11:39;155392.34;;;29.71;100.00
3796;BME280;1913;50.660;7.834;2023-06-22T12:14:04;155318.56;;;29.42;100.00
3796;BME280;1913;50.660;7.834;2023-06-22T12:16:30;155422.81;;;29.83;100.00
3796;BME280;1913;50.660;7.834;2023-06-22T12:18:55;155459.66;;;29.98;100.00
3796;BME280;1913;50.660;7.834;2023-06-22T12:21:21;155506.75;;;30.17;100.00
3796;BME280;1913;50.660;7.834;2023-06-22T12:23:46;155569.03;;;30.42;100.00
3796;BME280;1913;50.660;7.834;2023-06-22T12:26:12;155678.38;;;30.86;100.00
3796;BME280;1913;50.660;7.834;2023-06-22T12:28:37;155761.03;;;31.19;100.00
3796;BME280;1913;50.660;7.834;2023-06-22T12:31:03;155833.59;;;31.48;100.00
3796;BME280;1913;50.660;7.834;2023-06-22T12:33:28;155824.69;;;31.45;97.95
3796;BME280;1913;50.660;7.834;2023-06-22T12:35:55;155897.19;;;31.74;100.00
3796;BME280;1913;50.660;7.834;2023-06-22T12:38:21;156060.03;;;32.39;100.00
3796;BME280;1913;50.660;7.834;2023-06-22T12:40:46;156086.78;;;32.50;100.00
3796;BME280;1913;50.660;7.834;2023-06-22T12:43:12;156044.75;;;32.33;95.82
3796;BME280;1913;50.660;7.834;2023-06-22T12:45:37;156149.13;;;32.75;92.35
3796;BME280;1913;50.660;7.834;2023-06-22T12:48:03;156222.97;;;33.05;92.67
3796;BME280;1913;50.660;7.834;2023-06-22T12:50:28;156275.16;;;33.26;93.53
3796;BME280;1913;50.660;7.834;2023-06-22T12:52:54;156352.88;;;33.57;93.33
3796;BME280;1913;50.660;7.834;2023-06-22T12:55:19;156369.44;;;33.64;91.09
3796;BME280;1913;50.660;7.834;2023-06-22T12:57:45;156366.88;;;33.63;84.24
3796;BME280;1913;50.660;7.834;2023-06-22T13:00:10;156335.06;;;33.50;87.33